createdAt,value
2017-06-10T00:00:54.186Z,52.97
2017-06-10T00:01:55.816Z,52.58
2017-06-10T00:02:57.454Z,54.12
2017-06-10T00:03:59.167Z,54.12
2017-06-10T00:05:00.812Z,52.97
2017-06-10T00:06:02.503Z,53.54
2017-06-10T00:07:04.170Z,52.58
2017-06-10T00:08:05.819Z,53.54
2017-06-10T00:09:46.977Z,52.39
2017-06-10T00:10:48.617Z,53.45
2017-06-10T00:11:50.243Z,52.26
2017-06-10T00:12:51.912Z,52.26
2017-06-10T00:13:53.553Z,54.57
2017-06-10T00:14:55.241Z,54.47
2017-06-10T00:15:56.897Z,53.52
2017-06-10T00:16:58.542Z,53.52
2017-06-10T00:18:00.145Z,53.13
2017-06-10T00:19:41.245Z,54.96
2017-06-10T00:21:22.463Z,53.42
2017-06-10T00:22:24.057Z,53.23
2017-06-10T00:23:25.650Z,52.84
2017-06-10T00:24:27.255Z,53.32
2017-06-10T00:25:28.873Z,52.36
2017-06-10T00:26:30.475Z,53.52
2017-06-10T00:27:32.098Z,53.42
2017-06-10T00:28:33.684Z,53.23
2017-06-10T00:29:35.300Z,54.57
2017-06-10T00:30:36.968Z,53.03
2017-06-10T00:31:38.568Z,53.90
2017-06-10T00:32:40.140Z,52.94
2017-06-10T00:33:41.785Z,53.70
2017-06-10T00:34:43.404Z,53.52
2017-06-10T00:35:45.004Z,53.42
2017-06-10T00:36:46.622Z,53.32
2017-06-10T00:37:48.145Z,52.94
2017-06-10T00:38:49.812Z,53.90
2017-06-10T00:39:51.409Z,53.42
2017-06-10T00:40:53.082Z,54.00
2017-06-10T00:41:54.706Z,53.42
2017-06-10T00:42:56.284Z,53.13
2017-06-10T00:43:57.851Z,53.70
2017-06-10T00:44:59.386Z,52.94
2017-06-10T00:46:01.034Z,53.03
2017-06-10T00:47:02.597Z,53.03
2017-06-10T00:48:04.162Z,55.24
2017-06-10T00:49:05.774Z,52.94
2017-06-10T00:50:07.381Z,53.52
2017-06-10T00:51:09.022Z,53.30
2017-06-10T00:52:10.595Z,53.01
2017-06-10T00:53:12.168Z,53.80
2017-06-10T00:54:13.784Z,55.05
2017-06-10T00:55:15.409Z,54.19
2017-06-10T00:56:17.064Z,53.20
2017-06-10T00:57:18.656Z,53.52
2017-06-10T00:58:20.241Z,53.87
2017-06-10T00:59:21.851Z,53.20
2017-06-10T01:00:23.467Z,55.02
2017-06-10T01:02:04.614Z,55.12
2017-06-10T01:03:06.261Z,55.82
2017-06-10T01:04:07.936Z,53.78
2017-06-10T01:05:09.609Z,54.93
2017-06-10T01:06:11.241Z,54.06
2017-06-10T01:07:12.848Z,52.72
2017-06-10T01:08:14.482Z,53.49
2017-06-10T01:09:16.176Z,53.68
2017-06-10T01:10:17.843Z,53.11
2017-06-10T01:11:19.447Z,54.83
2017-06-10T01:12:21.096Z,54.06
2017-06-10T01:13:22.708Z,54.16
2017-06-10T01:14:24.400Z,54.06
2017-06-10T01:15:26.112Z,53.97
2017-06-10T01:16:27.717Z,54.93
2017-06-10T01:17:29.337Z,54.25
2017-06-10T01:18:30.991Z,54.74
2017-06-10T01:19:32.629Z,55.22
2017-06-10T01:20:34.349Z,55.12
2017-06-10T01:21:35.980Z,54.06
2017-06-10T01:22:37.592Z,54.93
2017-06-10T01:23:39.221Z,53.87
2017-06-10T01:24:40.786Z,54.74
2017-06-10T01:25:42.415Z,54.83
2017-06-10T01:26:43.974Z,56.37
2017-06-10T01:27:46.256Z,55.12
2017-06-10T01:28:47.985Z,55.79
2017-06-10T01:29:49.609Z,54.83
2017-06-10T01:30:51.288Z,56.08
2017-06-10T01:31:52.890Z,56.66
2017-06-10T01:32:54.543Z,56.66
2017-06-10T01:34:35.769Z,55.12
2017-06-10T01:35:37.435Z,56.76
2017-06-10T01:36:39.102Z,55.22
2017-06-10T01:37:40.744Z,56.37
2017-06-10T01:38:42.340Z,55.89
2017-06-10T01:39:43.984Z,55.60
2017-06-10T01:40:45.673Z,55.51
2017-06-10T01:41:47.230Z,55.51
2017-06-10T01:42:48.861Z,55.12
2017-06-10T01:43:50.441Z,54.64
2017-06-10T01:44:52.029Z,55.69
2017-06-10T01:45:53.721Z,56.37
2017-06-10T01:46:55.327Z,56.37
2017-06-10T01:47:56.960Z,57.23
2017-06-10T01:48:58.526Z,55.41
2017-06-10T01:50:00.079Z,55.60
2017-06-10T01:51:01.729Z,55.51
2017-06-10T01:52:03.364Z,55.22
2017-06-10T01:53:04.940Z,55.32
2017-06-10T01:54:46.014Z,55.29
2017-06-10T01:55:47.644Z,56.46
2017-06-10T01:56:49.217Z,55.89
2017-06-10T01:57:50.861Z,55.60
2017-06-10T01:58:52.473Z,56.73
2017-06-10T01:59:54.104Z,57.81
2017-06-10T02:00:55.701Z,55.57
2017-06-10T02:01:58.059Z,55.38
2017-06-10T02:02:59.669Z,56.05
2017-06-10T02:04:01.238Z,57.59
2017-06-10T02:05:02.895Z,56.82
2017-06-10T02:06:04.479Z,55.77
2017-06-10T02:07:06.091Z,58.45
2017-06-10T02:08:07.716Z,59.03
2017-06-10T02:09:09.351Z,58.58
2017-06-10T02:10:11.011Z,57.62
2017-06-10T02:11:12.592Z,58.20
2017-06-10T02:12:14.194Z,57.23
2017-06-10T02:13:15.790Z,56.85
2017-06-10T02:14:17.385Z,56.63
2017-06-10T02:15:19.030Z,56.92
2017-06-10T02:16:20.597Z,58.45
2017-06-10T02:17:22.207Z,58.10
2017-06-10T02:18:23.805Z,57.30
2017-06-10T02:19:25.412Z,57.30
2017-06-10T02:20:27.050Z,57.78
2017-06-10T02:21:28.715Z,57.40
2017-06-10T02:22:30.347Z,56.53
2017-06-10T02:23:31.922Z,57.68
2017-06-10T02:24:34.091Z,57.68
2017-06-10T02:25:35.640Z,57.88
2017-06-10T02:26:37.257Z,57.40
2017-06-10T02:27:38.821Z,58.94
2017-06-10T02:28:40.428Z,56.73
2017-06-10T02:29:42.021Z,56.53
2017-06-10T02:30:43.626Z,56.63
2017-06-10T02:31:45.239Z,57.30
2017-06-10T02:32:46.838Z,57.21
2017-06-10T02:33:48.478Z,57.97
2017-06-10T02:34:50.124Z,57.40
2017-06-10T02:35:51.762Z,57.30
2017-06-10T02:36:53.386Z,58.55
2017-06-10T02:37:55.079Z,57.97
2017-06-10T02:38:56.728Z,58.74
2017-06-10T02:39:58.450Z,57.68
2017-06-10T02:41:00.188Z,58.94
2017-06-10T02:42:01.894Z,60.08
2017-06-10T02:43:03.486Z,57.30
2017-06-10T02:44:05.130Z,59.22
2017-06-10T02:45:06.770Z,57.68
2017-06-10T02:46:47.876Z,57.68
2017-06-10T02:48:29.054Z,59.22
2017-06-10T02:49:30.677Z,58.36
2017-06-10T02:50:32.249Z,59.03
2017-06-10T02:51:33.903Z,57.88
2017-06-10T02:52:36.085Z,60.08
2017-06-10T02:53:37.812Z,57.78
2017-06-10T02:54:39.453Z,59.99
2017-06-10T02:55:41.070Z,57.59
2017-06-10T02:56:42.670Z,58.07
2017-06-10T02:57:44.336Z,59.32
2017-06-10T02:58:46.003Z,58.45
2017-06-10T02:59:47.671Z,58.94
2017-06-10T03:00:49.342Z,58.36
2017-06-10T03:01:50.961Z,58.91
2017-06-10T03:02:52.660Z,58.45
2017-06-10T03:03:54.277Z,60.66
2017-06-10T03:04:55.951Z,59.61
2017-06-10T03:05:57.618Z,59.03
2017-06-10T03:06:59.218Z,59.32
2017-06-10T03:08:00.830Z,59.99
2017-06-10T03:09:02.467Z,58.84
2017-06-10T03:10:04.100Z,58.94
2017-06-10T03:11:05.755Z,59.03
2017-06-10T03:12:07.345Z,58.23
2017-06-10T03:13:08.966Z,58.74
2017-06-10T03:14:10.632Z,61.24
2017-06-10T03:15:12.271Z,59.80
2017-06-10T03:16:13.893Z,59.12
2017-06-10T03:17:15.530Z,59.89
2017-06-10T03:18:17.173Z,58.04
2017-06-10T03:19:18.863Z,59.80
2017-06-10T03:20:20.465Z,60.08
2017-06-10T03:21:22.098Z,60.38
2017-06-10T03:22:23.736Z,60.75
2017-06-10T03:23:25.405Z,59.12
2017-06-10T03:24:27.111Z,59.99
2017-06-10T03:25:28.750Z,59.70
2017-06-10T03:26:30.389Z,60.08
2017-06-10T03:27:31.967Z,58.64
2017-06-10T03:28:33.558Z,58.94
2017-06-10T03:29:35.195Z,60.18
2017-06-10T03:30:36.750Z,59.19
2017-06-10T03:31:38.356Z,60.38
2017-06-10T03:32:39.999Z,58.23
2017-06-10T03:33:41.603Z,60.15
2017-06-10T03:34:43.263Z,59.29
2017-06-10T03:35:44.832Z,60.08
2017-06-10T03:36:46.441Z,58.91
2017-06-10T03:37:48.027Z,60.47
2017-06-10T03:39:29.200Z,59.80
2017-06-10T03:40:30.820Z,58.84
2017-06-10T03:41:32.450Z,59.29
2017-06-10T03:42:34.046Z,58.91
2017-06-10T03:43:35.633Z,60.08
2017-06-10T03:44:37.289Z,58.91
2017-06-10T03:45:38.864Z,58.84
2017-06-10T03:46:40.470Z,60.57
2017-06-10T03:47:42.076Z,59.09
2017-06-10T03:48:43.661Z,59.38
2017-06-10T03:49:45.256Z,59.80
2017-06-10T03:50:46.846Z,59.51
2017-06-10T03:51:48.445Z,59.41
2017-06-10T03:52:50.065Z,58.91
2017-06-10T03:53:51.680Z,59.58
2017-06-10T03:54:53.374Z,59.80
2017-06-10T03:55:54.926Z,59.89
2017-06-10T03:56:56.550Z,58.94
2017-06-10T03:57:58.167Z,58.42
2017-06-10T03:58:59.802Z,59.38
2017-06-10T04:00:01.500Z,58.91
2017-06-10T04:01:03.107Z,59.89
2017-06-10T04:02:04.684Z,60.47
2017-06-10T04:03:06.313Z,59.03
2017-06-10T04:04:07.937Z,59.80
2017-06-10T04:05:09.602Z,58.45
2017-06-10T04:06:11.177Z,59.89
2017-06-10T04:07:12.809Z,58.71
2017-06-10T04:08:14.430Z,59.22
2017-06-10T04:09:16.120Z,59.22
2017-06-10T04:10:17.769Z,60.18
2017-06-10T04:11:19.382Z,58.94
2017-06-10T04:12:20.983Z,60.57
2017-06-10T04:13:22.638Z,59.22
2017-06-10T04:14:24.313Z,58.36
2017-06-10T04:15:25.963Z,57.88
2017-06-10T04:16:27.594Z,59.89
2017-06-10T04:17:29.198Z,60.08
2017-06-10T04:18:30.842Z,59.25
2017-06-10T04:19:32.523Z,59.06
2017-06-10T04:20:34.180Z,58.48
2017-06-10T04:21:35.824Z,57.78
2017-06-10T04:22:37.441Z,58.87
2017-06-10T04:23:39.106Z,58.48
2017-06-10T04:24:40.799Z,58.87
2017-06-10T04:25:42.487Z,58.67
2017-06-10T04:26:44.105Z,58.58
2017-06-10T04:27:45.745Z,58.67
2017-06-10T04:28:47.444Z,57.81
2017-06-10T04:29:49.096Z,57.93
2017-06-10T04:30:50.717Z,57.75
2017-06-10T04:32:31.808Z,57.93
2017-06-10T04:33:33.397Z,57.93
2017-06-10T04:34:35.030Z,57.45
2017-06-10T04:35:36.607Z,57.26
2017-06-10T04:36:38.202Z,57.17
2017-06-10T04:37:39.911Z,56.59
2017-06-10T04:38:41.560Z,56.98
2017-06-10T04:39:43.201Z,56.49
2017-06-10T04:40:44.826Z,57.00
2017-06-10T04:41:46.414Z,57.00
2017-06-10T04:42:48.084Z,55.76
2017-06-10T04:43:49.748Z,56.14
2017-06-10T04:44:51.392Z,55.37
2017-06-10T04:45:53.021Z,56.52
2017-06-10T04:46:54.688Z,55.08
2017-06-10T04:47:56.344Z,55.56
2017-06-10T04:48:57.916Z,55.85
2017-06-10T04:49:59.592Z,55.30
2017-06-10T04:51:01.195Z,55.59
2017-06-10T04:52:02.909Z,54.91
2017-06-10T04:53:04.546Z,55.20
2017-06-10T04:54:06.407Z,55.30
2017-06-10T04:55:08.014Z,55.49
2017-06-10T04:56:09.602Z,54.91
2017-06-10T04:57:13.022Z,53.86
2017-06-10T04:58:14.674Z,54.94
2017-06-10T04:59:16.326Z,53.98
2017-06-10T05:00:17.929Z,54.17
2017-06-10T05:01:19.538Z,54.17
2017-06-10T05:02:22.647Z,54.36
2017-06-10T05:03:24.278Z,53.21
2017-06-10T05:04:25.871Z,52.83
2017-06-10T05:05:27.486Z,53.59
2017-06-10T05:06:29.069Z,53.11
2017-06-10T05:07:30.684Z,53.21
2017-06-10T05:08:32.358Z,53.31
2017-06-10T05:09:33.971Z,53.21
2017-06-10T05:11:15.134Z,52.73
2017-06-10T05:12:16.728Z,52.27
2017-06-10T05:13:18.464Z,52.95
2017-06-10T05:14:20.089Z,52.47
2017-06-10T05:15:21.679Z,52.85
2017-06-10T05:16:23.365Z,51.98
2017-06-10T05:17:24.981Z,52.08
2017-06-10T05:18:26.583Z,52.08
2017-06-10T05:19:28.216Z,51.62
2017-06-10T05:20:29.811Z,52.30
2017-06-10T05:21:31.511Z,51.43
2017-06-10T05:22:33.103Z,51.43
2017-06-10T05:24:14.272Z,51.14
2017-06-10T05:25:55.424Z,51.72
2017-06-10T05:26:57.089Z,51.24
2017-06-10T05:27:58.686Z,51.14
2017-06-10T05:29:00.288Z,51.05
2017-06-10T05:30:02.078Z,51.26
2017-06-10T05:31:03.703Z,50.30
2017-06-10T05:32:05.365Z,50.59
2017-06-10T05:33:06.992Z,49.91
2017-06-10T05:34:08.611Z,49.82
2017-06-10T05:35:10.248Z,49.82
2017-06-10T05:36:12.859Z,49.91
2017-06-10T05:37:14.855Z,49.73
2017-06-10T05:38:16.423Z,49.43
2017-06-10T05:39:18.064Z,49.53
2017-06-10T05:40:19.687Z,49.24
2017-06-10T05:41:21.305Z,49.43
2017-06-10T05:42:22.991Z,49.27
2017-06-10T05:43:24.638Z,49.46
2017-06-10T05:44:26.293Z,49.46
2017-06-10T05:45:27.990Z,48.79
2017-06-10T05:46:29.650Z,48.88
2017-06-10T05:47:31.390Z,48.11
2017-06-10T05:48:33.105Z,48.21
2017-06-10T05:49:34.729Z,47.63
2017-06-10T05:50:36.436Z,47.82
2017-06-10T05:51:38.056Z,47.34
2017-06-10T05:52:39.738Z,47.72
2017-06-10T05:53:41.389Z,47.55
2017-06-10T05:54:43.033Z,47.27
2017-06-10T05:55:44.685Z,47.36
2017-06-10T05:56:46.243Z,47.36
2017-06-10T05:57:47.930Z,46.69
2017-06-10T05:58:49.577Z,47.36
2017-06-10T05:59:51.177Z,46.88
2017-06-10T06:00:52.868Z,46.20
2017-06-10T06:01:54.491Z,46.49
2017-06-10T06:02:56.193Z,46.69
2017-06-10T06:03:57.859Z,46.20
2017-06-10T06:04:59.543Z,46.13
2017-06-10T06:06:01.088Z,45.75
2017-06-10T06:07:02.701Z,45.84
2017-06-10T06:08:04.393Z,45.65
2017-06-10T06:09:06.009Z,45.36
2017-06-10T06:10:07.636Z,45.55
2017-06-10T06:11:09.229Z,45.36
2017-06-10T06:12:10.876Z,45.65
2017-06-10T06:13:12.538Z,45.45
2017-06-10T06:14:14.134Z,45.07
2017-06-10T06:15:15.947Z,44.97
2017-06-10T06:16:57.556Z,44.78
2017-06-10T06:17:59.247Z,45.18
2017-06-10T06:19:00.898Z,45.38
2017-06-10T06:20:02.575Z,44.60
2017-06-10T06:21:04.250Z,44.32
2017-06-10T06:22:05.934Z,44.60
2017-06-10T06:23:07.552Z,44.22
2017-06-10T06:24:48.720Z,44.90
2017-06-10T06:26:29.915Z,44.90
2017-06-10T06:27:31.530Z,44.90
2017-06-10T06:28:33.180Z,44.12
2017-06-10T06:29:34.850Z,43.85
2017-06-10T06:30:36.467Z,43.85
2017-06-10T06:31:38.162Z,44.05
2017-06-10T06:32:39.774Z,43.76
2017-06-10T06:33:41.412Z,43.47
2017-06-10T06:34:43.093Z,44.05
2017-06-10T06:35:44.708Z,43.57
2017-06-10T06:36:46.332Z,43.08
2017-06-10T06:37:47.968Z,43.57
2017-06-10T06:38:49.606Z,43.66
2017-06-10T06:39:51.257Z,42.99
2017-06-10T06:40:52.852Z,43.95
2017-06-10T06:41:54.466Z,44.05
2017-06-10T06:42:56.098Z,43.85
2017-06-10T06:43:57.690Z,43.49
2017-06-10T06:44:59.366Z,43.01
2017-06-10T06:46:00.897Z,42.33
2017-06-10T06:47:02.538Z,43.20
2017-06-10T06:48:04.128Z,42.91
2017-06-10T06:49:05.741Z,42.33
2017-06-10T06:50:07.445Z,42.72
2017-06-10T06:51:09.032Z,43.30
2017-06-10T06:52:10.619Z,43.32
2017-06-10T06:53:12.183Z,42.55
2017-06-10T06:54:13.768Z,43.03
2017-06-10T06:55:15.387Z,43.23
2017-06-10T06:56:16.992Z,42.35
2017-06-10T06:57:18.585Z,43.03
2017-06-10T06:58:20.226Z,41.87
2017-06-10T06:59:21.883Z,42.35
2017-06-10T07:00:23.531Z,41.97
2017-06-10T07:01:25.141Z,42.55
2017-06-10T07:02:26.770Z,41.77
2017-06-10T07:03:28.391Z,41.97
2017-06-10T07:04:30.096Z,41.48
2017-06-10T07:05:31.713Z,40.81
2017-06-10T07:06:33.355Z,41.60
2017-06-10T07:07:34.912Z,41.02
2017-06-10T07:08:36.519Z,41.70
2017-06-10T07:10:18.205Z,39.95
2017-06-10T07:11:19.929Z,40.53
2017-06-10T07:12:21.546Z,41.31
2017-06-10T07:13:23.154Z,40.92
2017-06-10T07:14:24.763Z,40.53
2017-06-10T07:15:26.461Z,40.73
2017-06-10T07:16:28.066Z,39.88
2017-06-10T07:17:29.680Z,39.39
2017-06-10T07:18:31.316Z,40.56
2017-06-10T07:19:32.936Z,40.75
2017-06-10T07:20:34.627Z,40.65
2017-06-10T07:21:36.244Z,40.56
2017-06-10T07:22:37.868Z,40.56
2017-06-10T07:23:39.459Z,40.94
2017-06-10T07:24:41.110Z,40.94
2017-06-10T07:25:42.802Z,40.17
2017-06-10T07:26:44.455Z,40.46
2017-06-10T07:27:46.102Z,39.20
2017-06-10T07:28:47.727Z,40.17
2017-06-10T07:29:49.347Z,39.20
2017-06-10T07:30:51.037Z,39.32
2017-06-10T07:31:52.692Z,39.01
2017-06-10T07:32:54.324Z,39.90
2017-06-10T07:33:55.970Z,39.12
2017-06-10T07:34:57.627Z,39.12
2017-06-10T07:35:59.337Z,39.03
2017-06-10T07:37:00.977Z,38.73
2017-06-10T07:38:02.627Z,39.22
2017-06-10T07:39:04.252Z,38.73
2017-06-10T07:40:05.888Z,37.67
2017-06-10T07:41:07.541Z,38.83
2017-06-10T07:42:09.182Z,37.57
2017-06-10T07:43:10.823Z,38.15
2017-06-10T07:44:12.476Z,39.12
2017-06-10T07:45:14.105Z,37.48
2017-06-10T07:46:15.786Z,37.67
2017-06-10T07:47:17.426Z,36.70
2017-06-10T07:48:19.115Z,37.49
2017-06-10T07:49:21.273Z,38.27
2017-06-10T07:50:23.731Z,38.37
2017-06-10T07:51:25.465Z,37.21
2017-06-10T07:52:27.120Z,38.37
2017-06-10T07:53:28.764Z,37.21
2017-06-10T07:54:30.439Z,37.49
2017-06-10T07:55:32.016Z,37.01
2017-06-10T07:56:33.675Z,37.23
2017-06-10T07:57:35.321Z,37.01
2017-06-10T07:58:36.950Z,36.62
2017-06-10T07:59:38.538Z,37.90
2017-06-10T08:01:19.694Z,37.23
2017-06-10T08:03:00.795Z,37.23
2017-06-10T08:04:02.407Z,36.64
2017-06-10T08:05:04.011Z,37.71
2017-06-10T08:06:05.600Z,37.13
2017-06-10T08:07:07.265Z,36.83
2017-06-10T08:08:08.892Z,37.32
2017-06-10T08:09:10.511Z,37.41
2017-06-10T08:10:12.131Z,36.74
2017-06-10T08:11:13.735Z,36.74
2017-06-10T08:12:15.346Z,37.13
2017-06-10T08:13:16.974Z,36.85
2017-06-10T08:14:18.580Z,37.15
2017-06-10T08:15:20.215Z,36.76
2017-06-10T08:16:21.810Z,36.66
2017-06-10T08:17:23.510Z,37.24
2017-06-10T08:18:25.127Z,36.56
2017-06-10T08:19:26.739Z,35.98
2017-06-10T08:20:28.371Z,36.46
2017-06-10T08:21:29.986Z,36.66
2017-06-10T08:22:31.641Z,36.56
2017-06-10T08:23:33.262Z,36.66
2017-06-10T08:24:34.914Z,35.78
2017-06-10T08:25:36.512Z,35.78
2017-06-10T08:26:38.140Z,35.78
2017-06-10T08:27:39.764Z,35.88
2017-06-10T08:28:41.372Z,35.78
2017-06-10T08:29:43.123Z,35.88
2017-06-10T08:30:44.759Z,35.59
2017-06-10T08:31:46.394Z,35.80
2017-06-10T08:32:47.984Z,35.61
2017-06-10T08:33:49.578Z,35.90
2017-06-10T08:34:51.244Z,35.71
2017-06-10T08:35:52.835Z,35.71
2017-06-10T08:36:54.439Z,35.51
2017-06-10T08:37:56.068Z,35.32
2017-06-10T08:38:57.687Z,35.61
2017-06-10T08:39:59.337Z,38.04
2017-06-10T08:41:00.959Z,39.90
2017-06-10T08:42:02.602Z,37.08
2017-06-10T08:43:04.222Z,37.76
2017-06-10T08:44:05.875Z,36.79
2017-06-10T08:45:47.005Z,36.60
2017-06-10T08:47:28.154Z,36.81
2017-06-10T08:48:29.767Z,36.60
2017-06-10T08:49:31.370Z,35.63
2017-06-10T08:50:32.990Z,38.07
2017-06-10T08:51:34.637Z,35.45
2017-06-10T08:52:36.324Z,37.98
2017-06-10T08:53:37.958Z,37.20
2017-06-10T08:55:58.568Z,35.74
2017-06-10T08:57:00.188Z,35.45
2017-06-10T08:58:41.417Z,35.27
2017-06-10T09:01:41.591Z,34.98
2017-06-10T09:02:43.236Z,34.80
2017-06-10T09:05:04.252Z,35.49
2017-06-10T09:07:24.963Z,38.81
2017-06-10T09:08:26.691Z,33.85
2017-06-10T09:10:07.865Z,33.07
2017-06-10T09:11:09.614Z,32.99
2017-06-10T09:12:11.302Z,32.40
2017-06-10T09:13:12.993Z,33.09
2017-06-10T09:14:14.696Z,32.11
2017-06-10T09:15:16.414Z,32.02
2017-06-10T09:16:18.038Z,32.21
2017-06-10T09:17:19.659Z,33.48
2017-06-10T09:18:21.280Z,32.21
2017-06-10T09:19:22.887Z,33.67
2017-06-10T09:20:24.511Z,31.82
2017-06-10T09:21:26.131Z,32.21
2017-06-10T09:22:27.760Z,32.50
2017-06-10T09:23:29.439Z,32.89
2017-06-10T09:24:31.069Z,33.17
2017-06-10T09:25:32.713Z,33.65
2017-06-10T09:26:34.321Z,33.26
2017-06-10T09:27:35.963Z,35.00
2017-06-10T09:28:37.629Z,34.70
2017-06-10T09:29:39.232Z,35.00
2017-06-10T09:30:40.832Z,35.97
2017-06-10T09:31:42.471Z,34.61
2017-06-10T09:32:44.159Z,34.03
2017-06-10T09:33:45.804Z,34.12
2017-06-10T09:34:47.438Z,33.54
2017-06-10T09:35:49.123Z,33.34
2017-06-10T09:36:50.789Z,34.22
2017-06-10T09:37:52.447Z,33.64
2017-06-10T09:38:54.078Z,33.93
2017-06-10T09:39:55.724Z,33.93
2017-06-10T09:40:57.394Z,33.25
2017-06-10T09:41:59.266Z,33.25
2017-06-10T09:43:00.896Z,34.42
2017-06-10T09:44:02.541Z,33.65
2017-06-10T09:45:04.174Z,34.03
2017-06-10T09:46:05.839Z,33.54
2017-06-10T09:47:07.485Z,34.03
2017-06-10T09:48:09.110Z,35.39
2017-06-10T09:49:10.699Z,37.16
2017-06-10T09:50:12.312Z,33.83
2017-06-10T09:51:14.018Z,34.22
2017-06-10T09:52:15.631Z,34.80
2017-06-10T09:53:17.256Z,34.03
2017-06-10T09:54:18.917Z,34.52
2017-06-10T09:55:20.500Z,33.54
2017-06-10T09:56:22.145Z,34.32
2017-06-10T09:57:23.808Z,34.20
2017-06-10T09:58:25.379Z,34.32
2017-06-10T09:59:26.980Z,33.73
2017-06-10T10:00:28.568Z,33.93
2017-06-10T10:01:30.158Z,34.70
2017-06-10T10:02:31.816Z,34.32
2017-06-10T10:03:33.410Z,33.44
2017-06-10T10:04:34.979Z,33.73
2017-06-10T10:05:36.667Z,33.83
2017-06-10T10:06:38.303Z,33.73
2017-06-10T10:07:39.940Z,34.12
2017-06-10T10:08:41.585Z,33.83
2017-06-10T10:09:43.192Z,34.61
2017-06-10T10:10:44.864Z,34.52
2017-06-10T10:11:46.526Z,33.44
2017-06-10T10:12:48.158Z,34.03
2017-06-10T10:13:49.807Z,33.73
2017-06-10T10:14:51.440Z,33.54
2017-06-10T10:15:53.097Z,33.34
2017-06-10T10:16:54.697Z,33.64
2017-06-10T10:17:56.308Z,33.44
2017-06-10T10:18:57.919Z,33.34
2017-06-10T10:19:59.486Z,33.34
2017-06-10T10:21:01.166Z,34.03
2017-06-10T10:22:02.806Z,33.73
2017-06-10T10:23:04.418Z,33.75
2017-06-10T10:24:06.064Z,34.61
2017-06-10T10:25:07.735Z,34.61
2017-06-10T10:26:09.440Z,35.49
2017-06-10T10:27:11.019Z,35.00
2017-06-10T10:28:12.651Z,35.88
2017-06-10T10:29:14.285Z,33.93
2017-06-10T10:30:15.926Z,33.64
2017-06-10T10:31:17.598Z,33.64
2017-06-10T10:32:19.208Z,33.73
2017-06-10T10:33:20.869Z,34.03
2017-06-10T10:34:22.490Z,33.73
2017-06-10T10:35:24.137Z,34.03
2017-06-10T10:36:25.794Z,33.34
2017-06-10T10:37:27.450Z,34.12
2017-06-10T10:39:08.665Z,33.73
2017-06-10T10:40:10.299Z,34.03
2017-06-10T10:41:11.881Z,33.73
2017-06-10T10:42:13.493Z,34.61
2017-06-10T10:43:15.033Z,33.34
2017-06-10T10:44:16.967Z,33.44
2017-06-10T10:45:18.581Z,33.73
2017-06-10T10:46:20.230Z,33.54
2017-06-10T10:47:21.969Z,33.93
2017-06-10T10:48:23.595Z,35.39
2017-06-10T10:49:25.204Z,33.64
2017-06-10T10:50:26.850Z,33.93
2017-06-10T10:51:28.478Z,34.42
2017-06-10T10:52:30.167Z,33.54
2017-06-10T10:53:31.833Z,33.91
2017-06-10T10:54:33.476Z,34.03
2017-06-10T10:55:35.073Z,34.90
2017-06-10T10:56:36.712Z,34.12
2017-06-10T10:57:38.394Z,35.47
2017-06-10T10:58:39.989Z,34.70
2017-06-10T10:59:41.720Z,33.91
2017-06-10T11:00:43.327Z,34.01
2017-06-10T11:01:44.927Z,34.70
2017-06-10T11:02:46.556Z,34.03
2017-06-10T11:03:48.195Z,34.03
2017-06-10T11:04:49.892Z,34.50
2017-06-10T11:05:51.513Z,33.72
2017-06-10T11:06:53.169Z,33.93
2017-06-10T11:07:54.768Z,33.81
2017-06-10T11:08:56.393Z,34.30
2017-06-10T11:09:58.074Z,34.03
2017-06-10T11:10:59.694Z,35.78
2017-06-10T11:12:01.321Z,34.42
2017-06-10T11:13:02.938Z,34.20
2017-06-10T11:14:04.611Z,34.12
2017-06-10T11:15:06.261Z,34.50
2017-06-10T11:16:07.857Z,35.76
2017-06-10T11:17:09.506Z,34.03
2017-06-10T11:18:11.154Z,35.47
2017-06-10T11:19:12.774Z,34.90
2017-06-10T11:20:14.419Z,34.30
2017-06-10T11:21:16.080Z,34.30
2017-06-10T11:22:17.724Z,34.11
2017-06-10T11:23:19.316Z,34.59
2017-06-10T11:24:20.937Z,33.91
2017-06-10T11:25:22.605Z,34.01
2017-06-10T11:26:24.292Z,34.69
2017-06-10T11:27:25.984Z,34.40
2017-06-10T11:28:27.603Z,34.40
2017-06-10T11:29:29.236Z,34.20
2017-06-10T11:30:30.932Z,34.30
2017-06-10T11:32:12.092Z,34.01
2017-06-10T11:33:13.687Z,33.81
2017-06-10T11:34:15.306Z,34.50
2017-06-10T11:35:16.922Z,34.40
2017-06-10T11:36:18.512Z,33.81
2017-06-10T11:37:20.131Z,34.01
2017-06-10T11:38:21.714Z,34.40
2017-06-10T11:39:23.348Z,34.50
2017-06-10T11:40:24.934Z,34.01
2017-06-10T11:41:26.539Z,34.79
2017-06-10T11:42:28.202Z,33.81
2017-06-10T11:43:29.840Z,34.79
2017-06-10T11:44:31.480Z,34.69
2017-06-10T11:45:33.211Z,34.30
2017-06-10T11:46:34.873Z,34.59
2017-06-10T11:47:36.524Z,34.50
2017-06-10T11:48:38.172Z,34.40
2017-06-10T11:49:39.833Z,34.30
2017-06-10T11:50:41.508Z,34.40
2017-06-10T11:51:43.115Z,34.69
2017-06-10T11:52:44.760Z,34.59
2017-06-10T11:53:46.384Z,34.50
2017-06-10T11:54:48.006Z,34.59
2017-06-10T11:55:49.655Z,34.59
2017-06-10T11:56:51.262Z,34.50
2017-06-10T11:57:52.866Z,34.98
2017-06-10T11:58:54.526Z,35.37
2017-06-10T11:59:56.128Z,34.59
2017-06-10T12:00:57.782Z,34.77
2017-06-10T12:01:59.392Z,34.69
2017-06-10T12:03:00.999Z,34.38
2017-06-10T12:04:02.711Z,34.28
2017-06-10T12:05:04.392Z,35.06
2017-06-10T12:06:06.103Z,34.87
2017-06-10T12:07:07.726Z,34.77
2017-06-10T12:08:09.418Z,34.59
2017-06-10T12:09:11.105Z,34.97
2017-06-10T12:10:12.795Z,35.16
2017-06-10T12:11:14.456Z,34.58
2017-06-10T12:12:16.080Z,34.69
2017-06-10T12:13:17.729Z,34.58
2017-06-10T12:14:19.491Z,34.67
2017-06-10T12:15:21.182Z,35.16
2017-06-10T12:16:22.823Z,34.67
2017-06-10T12:17:24.518Z,34.67
2017-06-10T12:18:26.908Z,34.77
2017-06-10T12:19:28.618Z,34.67
2017-06-10T12:20:30.289Z,35.55
2017-06-10T12:21:32.035Z,34.58
2017-06-10T12:22:33.677Z,35.16
2017-06-10T12:24:14.875Z,34.77
2017-06-10T12:26:03.582Z,34.77
2017-06-10T12:27:05.263Z,35.16
2017-06-10T12:28:06.890Z,34.97
2017-06-10T12:29:08.656Z,35.06
2017-06-10T12:30:10.293Z,34.87
2017-06-10T12:31:11.946Z,34.67
2017-06-10T12:32:13.584Z,35.16
2017-06-10T12:33:15.310Z,35.35
2017-06-10T12:34:16.969Z,34.58
2017-06-10T12:35:18.629Z,34.67
2017-06-10T12:36:20.278Z,34.58
2017-06-10T12:37:21.945Z,34.67
2017-06-10T12:38:23.528Z,34.67
2017-06-10T12:39:25.225Z,35.35
2017-06-10T12:40:26.884Z,35.64
2017-06-10T12:41:28.534Z,34.87
2017-06-10T12:42:30.186Z,35.55
2017-06-10T12:43:31.836Z,35.16
2017-06-10T12:44:33.471Z,34.77
2017-06-10T12:45:35.095Z,35.06
2017-06-10T12:46:36.689Z,35.35
2017-06-10T12:47:38.393Z,34.77
2017-06-10T12:48:39.985Z,35.35
2017-06-10T12:49:41.672Z,35.74
2017-06-10T12:50:43.344Z,35.06
2017-06-10T12:51:44.955Z,35.45
2017-06-10T12:52:46.584Z,34.87
2017-06-10T12:53:48.204Z,34.95
2017-06-10T12:54:49.886Z,35.43
2017-06-10T12:55:51.514Z,35.43
2017-06-10T12:56:53.133Z,35.64
2017-06-10T12:57:54.775Z,35.16
2017-06-10T12:58:56.431Z,34.67
2017-06-10T12:59:58.140Z,35.25
2017-06-10T13:00:59.753Z,34.66
2017-06-10T13:02:01.349Z,35.33
2017-06-10T13:03:03.031Z,35.43
2017-06-10T13:04:04.622Z,34.75
2017-06-10T13:05:06.280Z,34.66
2017-06-10T13:06:07.902Z,35.24
2017-06-10T13:07:09.503Z,35.05
2017-06-10T13:08:11.097Z,35.33
2017-06-10T13:09:12.772Z,35.24
2017-06-10T13:10:14.464Z,35.72
2017-06-10T13:11:16.065Z,35.72
2017-06-10T13:12:17.681Z,35.53
2017-06-10T13:13:19.325Z,35.63
2017-06-10T13:14:20.906Z,35.53
2017-06-10T13:16:02.046Z,35.63
2017-06-10T13:17:03.678Z,35.72
2017-06-10T13:18:05.316Z,35.43
2017-06-10T13:19:06.992Z,35.41
2017-06-10T13:20:08.620Z,35.33
2017-06-10T13:21:10.221Z,35.14
2017-06-10T13:22:11.840Z,35.24
2017-06-10T13:23:13.441Z,34.95
2017-06-10T13:24:15.088Z,35.43
2017-06-10T13:25:16.708Z,35.33
2017-06-10T13:26:18.317Z,34.95
2017-06-10T13:27:19.889Z,34.75
2017-06-10T13:28:21.519Z,34.36
2017-06-10T13:29:23.215Z,34.75
2017-06-10T13:30:24.853Z,34.27
2017-06-10T13:31:26.473Z,34.66
2017-06-10T13:32:28.081Z,34.85
2017-06-10T13:33:29.703Z,34.85
2017-06-10T13:34:31.417Z,34.64
2017-06-10T13:35:33.037Z,34.75
2017-06-10T13:36:34.654Z,34.64
2017-06-10T13:37:36.365Z,34.56
2017-06-10T13:38:37.995Z,34.93